sensor_id;sensor_type;location;lat;lon;timestamp;P1;durP1;ratioP1;P2;durP2;ratioP2
51852;SDS011;37894;53.172;6.598;2022-08-07T00:00:53;9.02;;;5.35;;
51852;SDS011;37894;53.172;6.598;2022-08-07T00:03:19;10.52;;;5.40;;
51852;SDS011;37894;53.172;6.598;2022-08-07T00:05:44;8.45;;;5.13;;
51852;SDS011;37894;53.172;6.598;2022-08-07T00:08:10;8.43;;;5.70;;
51852;SDS011;37894;53.172;6.598;2022-08-07T00:10:36;8.02;;;5.07;;
51852;SDS011;37894;53.172;6.598;2022-08-07T00:13:03;7.32;;;5.30;;
51852;SDS011;37894;53.172;6.598;2022-08-07T00:15:30;10.98;;;5.45;;
51852;SDS011;37894;53.172;6.598;2022-08-07T00:17:56;8.52;;;5.07;;
51852;SDS011;37894;53.172;6.598;2022-08-07T00:20:23;8.77;;;5.82;;
51852;SDS011;37894;53.172;6.598;2022-08-07T00:22:49;7.45;;;5.10;;
51852;SDS011;37894;53.172;6.598;2022-08-07T00:25:15;7.63;;;4.75;;
51852;SDS011;37894;53.172;6.598;2022-08-07T00:27:40;8.90;;;5.32;;
51852;SDS011;37894;53.172;6.598;2022-08-07T00:30:07;9.88;;;5.38;;
51852;SDS011;37894;53.172;6.598;2022-08-07T00:32:33;9.82;;;5.80;;
51852;SDS011;37894;53.172;6.598;2022-08-07T00:34:59;10.27;;;5.35;;
51852;SDS011;37894;53.172;6.598;2022-08-07T00:37:24;8.95;;;5.13;;
51852;SDS011;37894;53.172;6.598;2022-08-07T00:39:50;7.40;;;5.50;;
51852;SDS011;37894;53.172;6.598;2022-08-07T00:42:20;9.07;;;6.35;;
51852;SDS011;37894;53.172;6.598;2022-08-07T00:44:46;10.98;;;5.32;;
51852;SDS011;37894;53.172;6.598;2022-08-07T00:47:11;9.23;;;5.60;;
51852;SDS011;37894;53.172;6.598;2022-08-07T00:49:37;9.50;;;5.10;;
51852;SDS011;37894;53.172;6.598;2022-08-07T00:52:07;9.27;;;6.07;;
51852;SDS011;37894;53.172;6.598;2022-08-07T00:54:34;8.25;;;5.30;;
51852;SDS011;37894;53.172;6.598;2022-08-07T00:57:00;8.65;;;5.63;;
51852;SDS011;37894;53.172;6.598;2022-08-07T00:59:26;8.02;;;5.28;;
51852;SDS011;37894;53.172;6.598;2022-08-07T01:01:51;9.75;;;6.25;;
51852;SDS011;37894;53.172;6.598;2022-08-07T01:04:18;8.18;;;5.25;;
51852;SDS011;37894;53.172;6.598;2022-08-07T01:06:44;8.20;;;5.47;;
51852;SDS011;37894;53.172;6.598;2022-08-07T01:09:10;7.72;;;4.75;;
51852;SDS011;37894;53.172;6.598;2022-08-07T01:11:36;8.60;;;5.57;;
51852;SDS011;37894;53.172;6.598;2022-08-07T01:14:03;8.52;;;5.18;;
51852;SDS011;37894;53.172;6.598;2022-08-07T01:16:29;6.97;;;4.53;;
51852;SDS011;37894;53.172;6.598;2022-08-07T01:18:55;9.95;;;5.43;;
51852;SDS011;37894;53.172;6.598;2022-08-07T01:21:22;8.18;;;4.88;;
51852;SDS011;37894;53.172;6.598;2022-08-07T01:23:50;8.88;;;5.03;;
51852;SDS011;37894;53.172;6.598;2022-08-07T01:26:18;8.10;;;4.85;;
51852;SDS011;37894;53.172;6.598;2022-08-07T01:28:47;8.80;;;5.28;;
51852;SDS011;37894;53.172;6.598;2022-08-07T01:31:14;9.25;;;5.97;;
51852;SDS011;37894;53.172;6.598;2022-08-07T01:33:41;9.80;;;6.45;;
51852;SDS011;37894;53.172;6.598;2022-08-07T01:36:08;7.30;;;5.40;;
51852;SDS011;37894;53.172;6.598;2022-08-07T01:38:34;8.18;;;5.38;;
51852;SDS011;37894;53.172;6.598;2022-08-07T01:41:01;9.50;;;6.05;;
51852;SDS011;37894;53.172;6.598;2022-08-07T01:43:28;9.10;;;6.18;;
51852;SDS011;37894;53.172;6.598;2022-08-07T01:45:54;8.80;;;6.03;;
51852;SDS011;37894;53.172;6.598;2022-08-07T01:48:21;10.70;;;6.13;;
51852;SDS011;37894;53.172;6.598;2022-08-07T01:50:49;10.02;;;6.15;;
51852;SDS011;37894;53.172;6.598;2022-08-07T01:53:21;10.38;;;5.40;;
51852;SDS011;37894;53.172;6.598;2022-08-07T01:55:50;8.77;;;6.15;;
51852;SDS011;37894;53.172;6.598;2022-08-07T01:58:20;9.73;;;5.68;;
51852;SDS011;37894;53.172;6.598;2022-08-07T02:00:49;10.82;;;5.75;;
51852;SDS011;37894;53.172;6.598;2022-08-07T02:03:20;10.40;;;6.28;;
51852;SDS011;37894;53.172;6.598;2022-08-07T02:05:51;8.65;;;5.82;;
51852;SDS011;37894;53.172;6.598;2022-08-07T02:08:22;9.05;;;6.10;;
51852;SDS011;37894;53.172;6.598;2022-08-07T02:10:50;10.68;;;6.53;;
51852;SDS011;37894;53.172;6.598;2022-08-07T02:13:22;10.02;;;6.30;;
51852;SDS011;37894;53.172;6.598;2022-08-07T02:15:49;12.82;;;7.55;;
51852;SDS011;37894;53.172;6.598;2022-08-07T02:18:17;12.23;;;7.20;;
51852;SDS011;37894;53.172;6.598;2022-08-07T02:20:44;11.07;;;6.50;;
51852;SDS011;37894;53.172;6.598;2022-08-07T02:23:13;10.65;;;6.72;;
51852;SDS011;37894;53.172;6.598;2022-08-07T02:25:40;12.57;;;7.47;;
51852;SDS011;37894;53.172;6.598;2022-08-07T02:28:07;11.98;;;6.90;;
51852;SDS011;37894;53.172;6.598;2022-08-07T02:30:34;11.30;;;7.40;;
51852;SDS011;37894;53.172;6.598;2022-08-07T02:33:02;10.90;;;7.28;;
51852;SDS011;37894;53.172;6.598;2022-08-07T02:35:30;11.18;;;7.00;;
51852;SDS011;37894;53.172;6.598;2022-08-07T02:37:58;9.27;;;6.53;;
51852;SDS011;37894;53.172;6.598;2022-08-07T02:40:26;12.45;;;7.38;;
51852;SDS011;37894;53.172;6.598;2022-08-07T02:42:54;10.02;;;7.07;;
51852;SDS011;37894;53.172;6.598;2022-08-07T02:45:23;10.60;;;7.00;;
51852;SDS011;37894;53.172;6.598;2022-08-07T02:47:51;12.43;;;7.07;;
51852;SDS011;37894;53.172;6.598;2022-08-07T02:50:17;10.88;;;7.13;;
51852;SDS011;37894;53.172;6.598;2022-08-07T02:55:17;10.95;;;6.60;;
51852;SDS011;37894;53.172;6.598;2022-08-07T02:57:45;11.38;;;6.93;;
51852;SDS011;37894;53.172;6.598;2022-08-07T03:00:12;11.65;;;6.68;;
51852;SDS011;37894;53.172;6.598;2022-08-07T03:02:40;10.80;;;6.40;;
51852;SDS011;37894;53.172;6.598;2022-08-07T03:05:08;12.00;;;7.03;;
51852;SDS011;37894;53.172;6.598;2022-08-07T03:07:35;13.68;;;7.13;;
51852;SDS011;37894;53.172;6.598;2022-08-07T03:10:03;10.63;;;6.97;;
51852;SDS011;37894;53.172;6.598;2022-08-07T03:12:29;11.25;;;7.40;;
51852;SDS011;37894;53.172;6.598;2022-08-07T03:14:56;11.52;;;6.55;;
51852;SDS011;37894;53.172;6.598;2022-08-07T03:17:23;9.98;;;6.47;;
51852;SDS011;37894;53.172;6.598;2022-08-07T03:19:49;10.82;;;6.68;;
51852;SDS011;37894;53.172;6.598;2022-08-07T03:22:15;11.40;;;6.97;;
51852;SDS011;37894;53.172;6.598;2022-08-07T03:24:43;10.75;;;6.22;;
51852;SDS011;37894;53.172;6.598;2022-08-07T03:27:09;12.65;;;6.55;;
51852;SDS011;37894;53.172;6.598;2022-08-07T03:29:46;9.43;;;6.18;;
51852;SDS011;37894;53.172;6.598;2022-08-07T03:32:16;11.75;;;6.38;;
51852;SDS011;37894;53.172;6.598;2022-08-07T03:34:47;11.80;;;6.17;;
51852;SDS011;37894;53.172;6.598;2022-08-07T03:37:15;11.50;;;6.88;;
51852;SDS011;37894;53.172;6.598;2022-08-07T03:39:44;10.98;;;6.40;;
51852;SDS011;37894;53.172;6.598;2022-08-07T03:42:14;11.48;;;6.95;;
51852;SDS011;37894;53.172;6.598;2022-08-07T03:44:41;14.35;;;7.05;;
51852;SDS011;37894;53.172;6.598;2022-08-07T03:47:07;11.05;;;6.60;;
51852;SDS011;37894;53.172;6.598;2022-08-07T03:49:35;12.98;;;7.70;;
51852;SDS011;37894;53.172;6.598;2022-08-07T03:52:00;14.68;;;6.75;;
51852;SDS011;37894;53.172;6.598;2022-08-07T03:54:27;13.38;;;8.02;;
51852;SDS011;37894;53.172;6.598;2022-08-07T03:56:53;13.50;;;6.72;;
51852;SDS011;37894;53.172;6.598;2022-08-07T03:59:20;14.73;;;7.07;;
51852;SDS011;37894;53.172;6.598;2022-08-07T04:01:46;13.35;;;6.75;;
51852;SDS011;37894;53.172;6.598;2022-08-07T04:04:16;11.27;;;6.70;;
51852;SDS011;37894;53.172;6.598;2022-08-07T04:06:42;11.00;;;6.15;;
51852;SDS011;37894;53.172;6.598;2022-08-07T04:09:08;13.07;;;7.07;;
51852;SDS011;37894;53.172;6.598;2022-08-07T04:11:35;12.63;;;7.20;;
51852;SDS011;37894;53.172;6.598;2022-08-07T04:14:01;10.95;;;6.32;;
51852;SDS011;37894;53.172;6.598;2022-08-07T04:16:28;10.32;;;6.50;;
51852;SDS011;37894;53.172;6.598;2022-08-07T04:18:54;11.85;;;7.07;;
51852;SDS011;37894;53.172;6.598;2022-08-07T04:21:20;9.90;;;6.43;;
51852;SDS011;37894;53.172;6.598;2022-08-07T04:23:46;11.52;;;6.22;;
51852;SDS011;37894;53.172;6.598;2022-08-07T04:26:12;9.27;;;6.63;;
51852;SDS011;37894;53.172;6.598;2022-08-07T04:28:41;10.45;;;6.85;;
51852;SDS011;37894;53.172;6.598;2022-08-07T04:31:08;13.23;;;7.03;;
51852;SDS011;37894;53.172;6.598;2022-08-07T04:33:37;10.98;;;6.45;;
51852;SDS011;37894;53.172;6.598;2022-08-07T04:36:04;13.07;;;7.32;;
51852;SDS011;37894;53.172;6.598;2022-08-07T04:38:32;11.75;;;6.97;;
51852;SDS011;37894;53.172;6.598;2022-08-07T04:41:02;14.73;;;7.00;;
51852;SDS011;37894;53.172;6.598;2022-08-07T04:43:37;13.88;;;7.75;;
51852;SDS011;37894;53.172;6.598;2022-08-07T04:46:09;11.00;;;6.25;;
51852;SDS011;37894;53.172;6.598;2022-08-07T04:51:50;11.60;;;7.05;;
51852;SDS011;37894;53.172;6.598;2022-08-07T05:00:16;11.77;;;6.85;;
51852;SDS011;37894;53.172;6.598;2022-08-07T05:05:34;15.80;;;7.80;;
51852;SDS011;37894;53.172;6.598;2022-08-07T05:08:32;13.32;;;6.55;;
51852;SDS011;37894;53.172;6.598;2022-08-07T05:11:21;10.82;;;6.60;;
51852;SDS011;37894;53.172;6.598;2022-08-07T05:16:58;12.43;;;7.97;;
51852;SDS011;37894;53.172;6.598;2022-08-07T05:19:26;15.35;;;7.82;;
51852;SDS011;37894;53.172;6.598;2022-08-07T05:21:59;11.77;;;7.15;;
51852;SDS011;37894;53.172;6.598;2022-08-07T05:24:28;12.43;;;7.15;;
51852;SDS011;37894;53.172;6.598;2022-08-07T05:26:56;11.25;;;6.63;;
51852;SDS011;37894;53.172;6.598;2022-08-07T05:29:24;13.23;;;7.20;;
51852;SDS011;37894;53.172;6.598;2022-08-07T05:31:52;12.65;;;7.10;;
51852;SDS011;37894;53.172;6.598;2022-08-07T05:34:19;13.18;;;6.60;;
51852;SDS011;37894;53.172;6.598;2022-08-07T05:36:50;10.80;;;6.57;;
51852;SDS011;37894;53.172;6.598;2022-08-07T05:39:17;9.52;;;6.30;;
51852;SDS011;37894;53.172;6.598;2022-08-07T05:41:44;11.38;;;5.70;;
51852;SDS011;37894;53.172;6.598;2022-08-07T05:44:12;11.23;;;6.50;;
51852;SDS011;37894;53.172;6.598;2022-08-07T05:46:41;10.73;;;6.60;;
51852;SDS011;37894;53.172;6.598;2022-08-07T05:49:08;9.63;;;5.85;;
51852;SDS011;37894;53.172;6.598;2022-08-07T05:51:35;10.85;;;6.43;;
51852;SDS011;37894;53.172;6.598;2022-08-07T05:54:01;9.25;;;5.90;;
51852;SDS011;37894;53.172;6.598;2022-08-07T05:56:28;9.75;;;6.07;;
51852;SDS011;37894;53.172;6.598;2022-08-07T05:58:54;9.20;;;6.18;;
51852;SDS011;37894;53.172;6.598;2022-08-07T06:01:22;9.18;;;6.10;;
51852;SDS011;37894;53.172;6.598;2022-08-07T06:03:52;10.40;;;6.28;;
51852;SDS011;37894;53.172;6.598;2022-08-07T06:06:19;9.70;;;5.82;;
51852;SDS011;37894;53.172;6.598;2022-08-07T06:08:46;10.13;;;5.72;;
51852;SDS011;37894;53.172;6.598;2022-08-07T06:11:13;11.38;;;6.35;;
51852;SDS011;37894;53.172;6.598;2022-08-07T06:13:39;13.65;;;6.18;;
51852;SDS011;37894;53.172;6.598;2022-08-07T06:16:08;12.00;;;5.95;;
51852;SDS011;37894;53.172;6.598;2022-08-07T06:18:34;12.38;;;6.32;;
51852;SDS011;37894;53.172;6.598;2022-08-07T06:21:02;7.45;;;5.05;;
51852;SDS011;37894;53.172;6.598;2022-08-07T06:23:29;10.15;;;5.95;;
51852;SDS011;37894;53.172;6.598;2022-08-07T06:25:55;11.43;;;5.43;;
51852;SDS011;37894;53.172;6.598;2022-08-07T06:28:21;9.55;;;5.25;;
51852;SDS011;37894;53.172;6.598;2022-08-07T06:30:47;10.15;;;5.30;;
51852;SDS011;37894;53.172;6.598;2022-08-07T06:33:13;7.82;;;5.07;;
51852;SDS011;37894;53.172;6.598;2022-08-07T06:35:39;9.88;;;5.25;;
51852;SDS011;37894;53.172;6.598;2022-08-07T06:38:05;9.90;;;5.55;;
51852;SDS011;37894;53.172;6.598;2022-08-07T06:40:36;8.07;;;4.47;;
51852;SDS011;37894;53.172;6.598;2022-08-07T06:43:07;8.40;;;4.70;;
51852;SDS011;37894;53.172;6.598;2022-08-07T06:45:34;6.53;;;4.10;;
51852;SDS011;37894;53.172;6.598;2022-08-07T06:48:00;7.43;;;4.13;;
51852;SDS011;37894;53.172;6.598;2022-08-07T06:50:26;7.20;;;4.32;;
51852;SDS011;37894;53.172;6.598;2022-08-07T06:52:53;7.47;;;4.18;;
51852;SDS011;37894;53.172;6.598;2022-08-07T06:55:28;8.05;;;4.45;;
51852;SDS011;37894;53.172;6.598;2022-08-07T06:58:03;6.57;;;4.22;;
51852;SDS011;37894;53.172;6.598;2022-08-07T07:00:33;8.10;;;4.43;;
51852;SDS011;37894;53.172;6.598;2022-08-07T07:03:03;6.75;;;3.58;;
51852;SDS011;37894;53.172;6.598;2022-08-07T07:05:29;5.75;;;3.50;;
51852;SDS011;37894;53.172;6.598;2022-08-07T07:07:55;5.03;;;3.45;;
51852;SDS011;37894;53.172;6.598;2022-08-07T07:10:28;6.13;;;3.70;;
51852;SDS011;37894;53.172;6.598;2022-08-07T07:12:57;5.65;;;2.90;;
51852;SDS011;37894;53.172;6.598;2022-08-07T07:15:45;4.05;;;2.60;;
51852;SDS011;37894;53.172;6.598;2022-08-07T07:18:24;6.43;;;3.40;;
51852;SDS011;37894;53.172;6.598;2022-08-07T07:23:36;4.18;;;2.38;;
51852;SDS011;37894;53.172;6.598;2022-08-07T07:26:04;7.45;;;2.58;;
51852;SDS011;37894;53.172;6.598;2022-08-07T07:28:35;6.25;;;2.50;;
51852;SDS011;37894;53.172;6.598;2022-08-07T07:33:53;6.30;;;2.45;;
51852;SDS011;37894;53.172;6.598;2022-08-07T07:36:23;4.90;;;3.28;;
51852;SDS011;37894;53.172;6.598;2022-08-07T07:38:51;6.88;;;3.00;;
51852;SDS011;37894;53.172;6.598;2022-08-07T07:41:17;8.40;;;3.53;;
51852;SDS011;37894;53.172;6.598;2022-08-07T07:43:46;7.20;;;3.00;;
51852;SDS011;37894;53.172;6.598;2022-08-07T07:46:15;5.30;;;3.00;;
51852;SDS011;37894;53.172;6.598;2022-08-07T07:48:42;5.57;;;2.63;;
51852;SDS011;37894;53.172;6.598;2022-08-07T07:51:12;4.45;;;3.10;;
51852;SDS011;37894;53.172;6.598;2022-08-07T07:53:40;5.25;;;3.25;;
51852;SDS011;37894;53.172;6.598;2022-08-07T07:56:07;6.82;;;3.50;;
51852;SDS011;37894;53.172;6.598;2022-08-07T07:58:35;6.07;;;3.85;;
51852;SDS011;37894;53.172;6.598;2022-08-07T08:01:02;7.47;;;3.53;;
51852;SDS011;37894;53.172;6.598;2022-08-07T08:03:30;6.35;;;3.35;;
51852;SDS011;37894;53.172;6.598;2022-08-07T08:05:57;6.65;;;3.55;;
51852;SDS011;37894;53.172;6.598;2022-08-07T08:08:25;8.25;;;3.47;;
51852;SDS011;37894;53.172;6.598;2022-08-07T08:10:53;8.55;;;3.85;;
51852;SDS011;37894;53.172;6.598;2022-08-07T08:13:21;5.50;;;3.58;;
51852;SDS011;37894;53.172;6.598;2022-08-07T08:15:49;6.80;;;3.78;;
51852;SDS011;37894;53.172;6.598;2022-08-07T08:18:16;7.65;;;3.75;;
51852;SDS011;37894;53.172;6.598;2022-08-07T08:20:43;7.93;;;3.60;;
51852;SDS011;37894;53.172;6.598;2022-08-07T08:23:11;5.18;;;3.45;;
51852;SDS011;37894;53.172;6.598;2022-08-07T08:25:57;6.55;;;3.40;;
51852;SDS011;37894;53.172;6.598;2022-08-07T08:28:43;5.38;;;2.80;;
51852;SDS011;37894;53.172;6.598;2022-08-07T08:31:11;7.75;;;3.28;;
51852;SDS011;37894;53.172;6.598;2022-08-07T08:33:39;6.78;;;3.17;;
51852;SDS011;37894;53.172;6.598;2022-08-07T08:36:06;5.65;;;3.28;;
51852;SDS011;37894;53.172;6.598;2022-08-07T08:38:38;4.60;;;3.17;;
51852;SDS011;37894;53.172;6.598;2022-08-07T08:43:46;5.85;;;3.78;;
51852;SDS011;37894;53.172;6.598;2022-08-07T08:46:40;5.43;;;3.00;;
51852;SDS011;37894;53.172;6.598;2022-08-07T08:49:27;5.03;;;3.40;;
51852;SDS011;37894;53.172;6.598;2022-08-07T08:52:19;4.97;;;2.88;;
51852;SDS011;37894;53.172;6.598;2022-08-07T08:55:12;4.57;;;2.75;;
51852;SDS011;37894;53.172;6.598;2022-08-07T08:57:51;5.43;;;2.80;;
51852;SDS011;37894;53.172;6.598;2022-08-07T09:00:27;4.80;;;2.93;;
51852;SDS011;37894;53.172;6.598;2022-08-07T09:03:01;5.07;;;2.80;;
51852;SDS011;37894;53.172;6.598;2022-08-07T09:08:30;6.63;;;3.75;;
51852;SDS011;37894;53.172;6.598;2022-08-07T09:11:17;7.90;;;3.10;;
51852;SDS011;37894;53.172;6.598;2022-08-07T09:14:02;3.90;;;2.58;;
51852;SDS011;37894;53.172;6.598;2022-08-07T09:22:12;6.63;;;2.63;;
51852;SDS011;37894;53.172;6.598;2022-08-07T09:30:13;4.70;;;2.40;;
51852;SDS011;37894;53.172;6.598;2022-08-07T09:32:49;3.80;;;2.55;;
51852;SDS011;37894;53.172;6.598;2022-08-07T09:38:24;4.63;;;2.67;;
51852;SDS011;37894;53.172;6.598;2022-08-07T09:50:00;5.60;;;2.70;;
51852;SDS011;37894;53.172;6.598;2022-08-07T09:55:12;7.43;;;2.70;;
51852;SDS011;37894;53.172;6.598;2022-08-07T09:57:52;5.57;;;2.47;;
51852;SDS011;37894;53.172;6.598;2022-08-07T10:06:33;11.55;;;2.70;;
51852;SDS011;37894;53.172;6.598;2022-08-07T10:12:07;4.90;;;2.20;;
51852;SDS011;37894;53.172;6.598;2022-08-07T10:15:09;4.63;;;2.40;;
51852;SDS011;37894;53.172;6.598;2022-08-07T10:21:14;4.00;;;2.40;;
51852;SDS011;37894;53.172;6.598;2022-08-07T10:26:44;4.53;;;2.53;;
51852;SDS011;37894;53.172;6.598;2022-08-07T10:31:55;5.18;;;2.70;;
51852;SDS011;37894;53.172;6.598;2022-08-07T10:37:26;7.95;;;2.55;;
51852;SDS011;37894;53.172;6.598;2022-08-07T10:45:46;4.25;;;2.25;;
51852;SDS011;37894;53.172;6.598;2022-08-07T10:50:55;3.72;;;2.20;;
51852;SDS011;37894;53.172;6.598;2022-08-07T10:53:26;3.00;;;1.90;;
51852;SDS011;37894;53.172;6.598;2022-08-07T10:56:04;3.83;;;2.10;;
51852;SDS011;37894;53.172;6.598;2022-08-07T10:58:41;4.82;;;1.98;;
51852;SDS011;37894;53.172;6.598;2022-08-07T11:04:16;2.95;;;1.83;;
51852;SDS011;37894;53.172;6.598;2022-08-07T11:07:20;4.22;;;1.80;;
51852;SDS011;37894;53.172;6.598;2022-08-07T11:10:17;4.35;;;2.10;;
51852;SDS011;37894;53.172;6.598;2022-08-07T11:12:55;3.28;;;2.00;;
51852;SDS011;37894;53.172;6.598;2022-08-07T11:15:26;3.97;;;1.70;;
51852;SDS011;37894;53.172;6.598;2022-08-07T11:20:48;4.00;;;1.98;;
51852;SDS011;37894;53.172;6.598;2022-08-07T11:23:35;3.72;;;2.00;;
51852;SDS011;37894;53.172;6.598;2022-08-07T11:26:20;2.97;;;1.85;;
51852;SDS011;37894;53.172;6.598;2022-08-07T11:31:35;3.38;;;1.85;;
51852;SDS011;37894;53.172;6.598;2022-08-07T12:02:49;3.40;;;1.35;;
51852;SDS011;37894;53.172;6.598;2022-08-07T12:05:38;4.10;;;1.40;;
51852;SDS011;37894;53.172;6.598;2022-08-07T12:08:26;2.67;;;1.50;;
51852;SDS011;37894;53.172;6.598;2022-08-07T12:11:14;3.55;;;1.60;;
51852;SDS011;37894;53.172;6.598;2022-08-07T12:13:49;3.90;;;1.50;;
51852;SDS011;37894;53.172;6.598;2022-08-07T12:16:31;2.58;;;1.42;;
51852;SDS011;37894;53.172;6.598;2022-08-07T12:22:09;4.20;;;1.55;;
51852;SDS011;37894;53.172;6.598;2022-08-07T12:24:49;2.85;;;1.60;;
51852;SDS011;37894;53.172;6.598;2022-08-07T12:28:10;3.70;;;1.63;;
51852;SDS011;37894;53.172;6.598;2022-08-07T12:30:41;2.72;;;1.58;;
51852;SDS011;37894;53.172;6.598;2022-08-07T12:33:11;2.70;;;1.50;;
51852;SDS011;37894;53.172;6.598;2022-08-07T12:35:42;4.38;;;1.40;;
51852;SDS011;37894;53.172;6.598;2022-08-07T12:38:11;3.17;;;1.50;;
51852;SDS011;37894;53.172;6.598;2022-08-07T12:40:38;3.70;;;1.50;;
51852;SDS011;37894;53.172;6.598;2022-08-07T12:43:07;3.17;;;1.45;;
51852;SDS011;37894;53.172;6.598;2022-08-07T12:46:00;2.80;;;1.38;;
51852;SDS011;37894;53.172;6.598;2022-08-07T12:51:25;2.85;;;1.40;;
51852;SDS011;37894;53.172;6.598;2022-08-07T12:54:06;4.00;;;1.60;;
51852;SDS011;37894;53.172;6.598;2022-08-07T12:56:43;3.22;;;1.40;;
51852;SDS011;37894;53.172;6.598;2022-08-07T12:59:11;3.03;;;1.50;;
51852;SDS011;37894;53.172;6.598;2022-08-07T13:12:34;4.30;;;1.70;;
51852;SDS011;37894;53.172;6.598;2022-08-07T13:15:17;2.72;;;1.48;;
51852;SDS011;37894;53.172;6.598;2022-08-07T13:21:04;5.50;;;1.75;;
51852;SDS011;37894;53.172;6.598;2022-08-07T13:24:10;2.88;;;1.55;;
51852;SDS011;37894;53.172;6.598;2022-08-07T13:26:39;3.85;;;1.60;;
51852;SDS011;37894;53.172;6.598;2022-08-07T13:29:09;4.68;;;1.70;;
51852;SDS011;37894;53.172;6.598;2022-08-07T13:34:43;3.00;;;1.60;;
51852;SDS011;37894;53.172;6.598;2022-08-07T13:37:36;4.88;;;1.92;;
51852;SDS011;37894;53.172;6.598;2022-08-07T13:40:19;3.45;;;1.80;;
51852;SDS011;37894;53.172;6.598;2022-08-07T13:43:01;4.88;;;1.73;;
51852;SDS011;37894;53.172;6.598;2022-08-07T13:45:31;3.70;;;1.52;;
51852;SDS011;37894;53.172;6.598;2022-08-07T13:48:00;2.40;;;1.50;;
51852;SDS011;37894;53.172;6.598;2022-08-07T13:50:29;2.47;;;1.50;;
51852;SDS011;37894;53.172;6.598;2022-08-07T13:52:56;4.82;;;2.10;;
51852;SDS011;37894;53.172;6.598;2022-08-07T13:55:23;5.00;;;1.80;;
51852;SDS011;37894;53.172;6.598;2022-08-07T13:57:51;3.65;;;1.42;;
51852;SDS011;37894;53.172;6.598;2022-08-07T14:00:43;3.95;;;2.08;;
51852;SDS011;37894;53.172;6.598;2022-08-07T14:03:10;3.58;;;1.88;;
51852;SDS011;37894;53.172;6.598;2022-08-07T14:05:37;3.28;;;1.77;;
51852;SDS011;37894;53.172;6.598;2022-08-07T14:08:05;3.38;;;1.70;;
51852;SDS011;37894;53.172;6.598;2022-08-07T14:10:35;4.22;;;1.98;;
51852;SDS011;37894;53.172;6.598;2022-08-07T14:15:42;6.97;;;2.20;;
51852;SDS011;37894;53.172;6.598;2022-08-07T14:18:19;4.07;;;2.15;;
51852;SDS011;37894;53.172;6.598;2022-08-07T14:23:37;3.70;;;1.55;;
51852;SDS011;37894;53.172;6.598;2022-08-07T14:26:11;4.22;;;1.80;;
51852;SDS011;37894;53.172;6.598;2022-08-07T14:28:42;3.55;;;1.63;;
51852;SDS011;37894;53.172;6.598;2022-08-07T14:31:10;4.45;;;1.50;;
51852;SDS011;37894;53.172;6.598;2022-08-07T14:33:37;4.07;;;1.88;;
51852;SDS011;37894;53.172;6.598;2022-08-07T14:36:04;4.07;;;2.25;;
51852;SDS011;37894;53.172;6.598;2022-08-07T14:38:31;3.13;;;1.70;;
51852;SDS011;37894;53.172;6.598;2022-08-07T14:41:04;4.65;;;1.65;;
51852;SDS011;37894;53.172;6.598;2022-08-07T14:43:42;4.57;;;1.70;;
51852;SDS011;37894;53.172;6.598;2022-08-07T14:46:10;5.20;;;1.60;;
51852;SDS011;37894;53.172;6.598;2022-08-07T14:48:41;2.95;;;1.58;;
51852;SDS011;37894;53.172;6.598;2022-08-07T14:51:10;4.43;;;1.38;;
51852;SDS011;37894;53.172;6.598;2022-08-07T14:53:41;4.32;;;1.67;;
51852;SDS011;37894;53.172;6.598;2022-08-07T14:58:36;3.08;;;1.52;;
51852;SDS011;37894;53.172;6.598;2022-08-07T15:01:09;3.75;;;1.42;;
51852;SDS011;37894;53.172;6.598;2022-08-07T15:03:36;3.72;;;1.90;;
51852;SDS011;37894;53.172;6.598;2022-08-07T15:06:04;5.55;;;2.10;;
51852;SDS011;37894;53.172;6.598;2022-08-07T15:08:32;3.22;;;1.60;;
51852;SDS011;37894;53.172;6.598;2022-08-07T15:11:10;4.50;;;1.80;;
51852;SDS011;37894;53.172;6.598;2022-08-07T15:13:39;5.82;;;2.13;;
51852;SDS011;37894;53.172;6.598;2022-08-07T15:16:16;5.30;;;2.70;;
51852;SDS011;37894;53.172;6.598;2022-08-07T15:18:43;5.20;;;2.30;;
51852;SDS011;37894;53.172;6.598;2022-08-07T15:21:18;4.53;;;2.33;;
51852;SDS011;37894;53.172;6.598;2022-08-07T15:23:48;4.95;;;2.45;;
51852;SDS011;37894;53.172;6.598;2022-08-07T15:26:20;4.38;;;2.42;;
51852;SDS011;37894;53.172;6.598;2022-08-07T15:28:55;4.18;;;1.98;;
51852;SDS011;37894;53.172;6.598;2022-08-07T15:31:23;3.58;;;2.17;;
51852;SDS011;37894;53.172;6.598;2022-08-07T15:33:50;5.13;;;2.70;;
51852;SDS011;37894;53.172;6.598;2022-08-07T15:38:48;5.18;;;2.70;;
51852;SDS011;37894;53.172;6.598;2022-08-07T15:41:15;3.95;;;2.15;;
51852;SDS011;37894;53.172;6.598;2022-08-07T15:43:47;4.20;;;2.20;;
51852;SDS011;37894;53.172;6.598;2022-08-07T15:46:27;10.00;;;5.78;;
51852;SDS011;37894;53.172;6.598;2022-08-07T15:48:55;7.30;;;3.83;;
51852;SDS011;37894;53.172;6.598;2022-08-07T15:51:23;7.50;;;4.45;;
51852;SDS011;37894;53.172;6.598;2022-08-07T15:53:52;5.18;;;2.58;;
51852;SDS011;37894;53.172;6.598;2022-08-07T15:56:22;4.57;;;2.20;;
51852;SDS011;37894;53.172;6.598;2022-08-07T15:58:58;4.55;;;2.38;;
51852;SDS011;37894;53.172;6.598;2022-08-07T16:01:35;4.60;;;2.08;;
51852;SDS011;37894;53.172;6.598;2022-08-07T16:04:08;4.18;;;2.03;;
51852;SDS011;37894;53.172;6.598;2022-08-07T16:15:30;6.30;;;2.00;;
51852;SDS011;37894;53.172;6.598;2022-08-07T16:23:44;3.17;;;1.92;;
51852;SDS011;37894;53.172;6.598;2022-08-07T16:31:53;5.53;;;2.28;;
51852;SDS011;37894;53.172;6.598;2022-08-07T16:42:46;7.00;;;2.80;;
51852;SDS011;37894;53.172;6.598;2022-08-07T16:53:14;4.85;;;2.72;;
51852;SDS011;37894;53.172;6.598;2022-08-07T16:56:17;7.82;;;3.13;;
51852;SDS011;37894;53.172;6.598;2022-08-07T16:59:02;6.63;;;2.85;;
51852;SDS011;37894;53.172;6.598;2022-08-07T17:04:33;8.70;;;3.50;;
51852;SDS011;37894;53.172;6.598;2022-08-07T17:07:25;5.85;;;3.20;;
51852;SDS011;37894;53.172;6.598;2022-08-07T17:10:01;6.03;;;3.30;;
51852;SDS011;37894;53.172;6.598;2022-08-07T17:12:40;5.85;;;3.28;;
51852;SDS011;37894;53.172;6.598;2022-08-07T17:15:17;5.18;;;3.50;;
51852;SDS011;37894;53.172;6.598;2022-08-07T17:23:24;6.97;;;3.40;;
51852;SDS011;37894;53.172;6.598;2022-08-07T17:26:02;6.40;;;3.03;;
51852;SDS011;37894;53.172;6.598;2022-08-07T17:34:12;7.97;;;3.00;;
51852;SDS011;37894;53.172;6.598;2022-08-07T17:37:00;6.45;;;3.00;;
51852;SDS011;37894;53.172;6.598;2022-08-07T17:42:38;7.60;;;3.40;;
51852;SDS011;37894;53.172;6.598;2022-08-07T17:45:20;6.28;;;2.97;;
51852;SDS011;37894;53.172;6.598;2022-08-07T17:48:09;10.15;;;2.70;;
51852;SDS011;37894;53.172;6.598;2022-08-07T17:53:34;6.85;;;2.85;;
51852;SDS011;37894;53.172;6.598;2022-08-07T17:56:24;5.35;;;2.78;;
51852;SDS011;37894;53.172;6.598;2022-08-07T18:01:23;7.45;;;3.00;;
51852;SDS011;37894;53.172;6.598;2022-08-07T18:03:59;8.65;;;2.90;;
51852;SDS011;37894;53.172;6.598;2022-08-07T18:06:50;3.72;;;2.22;;
51852;SDS011;37894;53.172;6.598;2022-08-07T18:09:21;9.45;;;3.00;;
51852;SDS011;37894;53.172;6.598;2022-08-07T18:11:50;5.35;;;2.40;;
51852;SDS011;37894;53.172;6.598;2022-08-07T18:14:41;4.95;;;2.13;;
51852;SDS011;37894;53.172;6.598;2022-08-07T18:20:36;5.05;;;2.00;;
51852;SDS011;37894;53.172;6.598;2022-08-07T18:23:07;9.60;;;3.00;;
51852;SDS011;37894;53.172;6.598;2022-08-07T18:25:34;5.05;;;2.35;;
51852;SDS011;37894;53.172;6.598;2022-08-07T18:28:14;5.45;;;2.22;;
51852;SDS011;37894;53.172;6.598;2022-08-07T18:30:58;11.80;;;2.38;;
51852;SDS011;37894;53.172;6.598;2022-08-07T18:39:05;3.80;;;1.90;;
51852;SDS011;37894;53.172;6.598;2022-08-07T18:49:31;5.82;;;1.88;;
51852;SDS011;37894;53.172;6.598;2022-08-07T18:55:23;4.53;;;1.90;;
51852;SDS011;37894;53.172;6.598;2022-08-07T19:03:21;8.63;;;1.83;;
51852;SDS011;37894;53.172;6.598;2022-08-07T19:05:59;6.90;;;2.30;;
51852;SDS011;37894;53.172;6.598;2022-08-07T19:11:25;5.90;;;1.92;;